Time;durP1;ratioP1;P1;durP2;ratioP2;P2;SDS_P1;SDS_P2;PMS_P1;PMS_P2;Temp;Humidity;BMP_temperature;BMP_pressure;BME280_temperature;BME280_humidity;BME280_pressure;Samples;Min_cycle;Max_cycle;Signal;HPM_P1;HPM_P2
2023/01/26 00:02:07;;;;;;;4.05;2.70;;;9.00;96.70;;;;;;4946338;28;20098;-73
2023/01/26 00:04:35;;;;;;;3.97;2.67;;;9.00;96.70;;;;;;4945183;28;20342;-73
2023/01/26 00:07:03;;;;;;;4.60;2.60;;;9.00;96.70;;;;;;4961624;28;20038;-73
2023/01/26 00:09:32;;;;;;;4.47;3.03;;;9.00;96.70;;;;;;4964871;28;20130;-73
2023/01/26 00:12:00;;;;;;;5.78;3.40;;;9.00;96.70;;;;;;4959001;28;20051;-73
2023/01/26 00:14:48;;;;;;;5.00;2.58;;;8.90;96.70;;;;;;4956410;28;20039;-73
2023/01/26 00:17:24;;;;;;;3.60;2.58;;;8.90;96.70;;;;;;4946170;28;20146;-72
2023/01/26 00:19:54;;;;;;;4.82;2.95;;;8.90;96.70;;;;;;4946523;28;20082;-73
2023/01/26 00:22:23;;;;;;;4.63;3.30;;;8.90;96.70;;;;;;4954573;28;20670;-73
2023/01/26 00:24:51;;;;;;;3.83;2.70;;;8.90;96.70;;;;;;4964160;28;20066;-73
2023/01/26 00:27:20;;;;;;;4.03;2.78;;;8.90;96.70;;;;;;4962085;28;20058;-73
2023/01/26 00:29:48;;;;;;;5.18;3.03;;;8.90;96.70;;;;;;4963014;28;20114;-73
2023/01/26 00:32:16;;;;;;;6.45;3.03;;;8.90;96.70;;;;;;4962767;28;20086;-72
2023/01/26 00:34:46;;;;;;;4.28;2.80;;;8.80;96.70;;;;;;4962580;28;20042;-73
2023/01/26 00:37:14;;;;;;;4.20;2.80;;;8.80;96.70;;;;;;4955133;28;20047;-73
2023/01/26 00:39:43;;;;;;;4.55;2.90;;;8.80;96.70;;;;;;4962954;28;20054;-73
2023/01/26 00:42:12;;;;;;;4.93;2.90;;;8.90;96.70;;;;;;4960317;28;20043;-73
2023/01/26 00:44:42;;;;;;;3.75;2.75;;;8.90;96.70;;;;;;4958259;28;20101;-76
2023/01/26 00:47:12;;;;;;;4.97;2.70;;;8.80;96.70;;;;;;4952415;28;20157;-76
2023/01/26 00:49:40;;;;;;;4.75;3.05;;;8.80;96.70;;;;;;4962231;28;20047;-76
2023/01/26 00:52:10;;;;;;;5.93;3.20;;;8.80;96.70;;;;;;4963764;28;20043;-76
2023/01/26 00:54:38;;;;;;;4.65;2.78;;;8.80;96.70;;;;;;4964608;28;20110;-77
2023/01/26 00:57:07;;;;;;;4.95;3.08;;;8.80;96.70;;;;;;4961173;28;20948;-76
2023/01/26 00:59:35;;;;;;;4.32;3.20;;;8.80;96.70;;;;;;4962972;28;20045;-76
2023/01/26 01:02:03;;;;;;;6.93;3.78;;;8.70;96.70;;;;;;4953418;28;20102;-76
2023/01/26 01:04:31;;;;;;;5.82;3.40;;;8.70;96.70;;;;;;4945930;28;20074;-76
2023/01/26 01:07:00;;;;;;;3.28;2.75;;;8.70;96.70;;;;;;4946701;28;20094;-76
2023/01/26 01:09:30;;;;;;;4.93;2.80;;;8.70;96.70;;;;;;4949499;28;20047;-76
2023/01/26 01:11:58;;;;;;;3.88;2.58;;;8.60;96.70;;;;;;4952193;28;20067;-76
2023/01/26 01:14:27;;;;;;;5.25;3.35;;;8.60;96.70;;;;;;4947018;28;20521;-76
2023/01/26 01:16:55;;;;;;;3.83;2.47;;;8.60;96.70;;;;;;4953788;28;20094;-77
2023/01/26 01:19:23;;;;;;;5.05;2.95;;;8.60;96.70;;;;;;4956325;28;20066;-76
2023/01/26 01:21:51;;;;;;;4.63;2.80;;;8.60;96.70;;;;;;4960376;28;20150;-76
2023/01/26 01:24:19;;;;;;;4.05;2.90;;;8.60;96.70;;;;;;4946539;28;20449;-76
2023/01/26 01:26:49;;;;;;;4.15;2.90;;;8.60;96.70;;;;;;4951644;28;20145;-77
2023/01/26 01:29:17;;;;;;;3.75;2.70;;;8.60;96.70;;;;;;4956220;28;20381;-77
2023/01/26 01:31:45;;;;;;;5.00;2.70;;;8.60;96.70;;;;;;4952630;28;20047;-76
2023/01/26 01:34:14;;;;;;;3.92;2.67;;;8.60;96.70;;;;;;4961923;28;20101;-76
2023/01/26 01:36:42;;;;;;;5.10;2.63;;;8.60;96.70;;;;;;4960681;28;20050;-76
2023/01/26 01:39:10;;;;;;;3.85;2.70;;;8.60;96.70;;;;;;4947502;28;20055;-76
2023/01/26 01:41:38;;;;;;;5.28;3.50;;;8.60;96.70;;;;;;4950086;28;20043;-76
2023/01/26 01:44:17;;;;;;;7.10;4.10;;;8.60;96.70;;;;;;4976454;28;20146;-75
2023/01/26 01:46:50;;;;;;;5.75;4.05;;;8.60;96.70;;;;;;4961787;28;20129;-76
2023/01/26 01:49:22;;;;;;;5.43;3.78;;;8.50;96.70;;;;;;4960796;28;20039;-76
2023/01/26 01:51:57;;;;;;;4.53;3.42;;;8.40;96.70;;;;;;4961258;28;20054;-76
2023/01/26 01:54:30;;;;;;;5.45;3.35;;;8.40;96.70;;;;;;4954724;28;21153;-77
2023/01/26 01:57:02;;;;;;;5.90;3.35;;;8.20;96.70;;;;;;4961985;28;20727;-77
2023/01/26 01:59:32;;;;;;;5.25;3.20;;;8.10;96.70;;;;;;4978432;28;20642;-77
2023/01/26 02:02:00;;;;;;;5.28;3.35;;;8.30;96.70;;;;;;4952224;28;20055;-76
2023/01/26 02:04:29;;;;;;;4.28;2.97;;;8.30;96.70;;;;;;4943010;28;20043;-76
2023/01/26 02:07:00;;;;;;;5.15;3.28;;;8.40;96.70;;;;;;4955770;28;20047;-77
2023/01/26 02:12:22;;;;;;;6.28;3.47;;;8.20;96.70;;;;;;4953538;28;20509;-74
2023/01/26 02:14:52;;;;;;;5.95;2.92;;;8.30;96.70;;;;;;4957539;28;20136;-73
2023/01/26 02:17:21;;;;;;;5.07;3.15;;;8.40;96.70;;;;;;4957532;28;20055;-77
2023/01/26 02:20:06;;;;;;;4.97;3.35;;;8.40;96.70;;;;;;4960005;28;20035;-76
2023/01/26 02:22:45;;;;;;;6.25;3.50;;;8.40;96.70;;;;;;4977383;28;20047;-73
2023/01/26 02:25:26;;;;;;;3.83;2.80;;;8.40;96.70;;;;;;4961995;28;20072;-75
2023/01/26 02:27:56;;;;;;;5.43;3.47;;;8.20;96.70;;;;;;4958334;28;20039;-75
2023/01/26 02:30:27;;;;;;;6.22;3.42;;;8.10;96.70;;;;;;4961954;28;20039;-75
2023/01/26 02:32:55;;;;;;;5.43;3.47;;;8.00;96.70;;;;;;4962913;28;20075;-75
2023/01/26 02:35:23;;;;;;;4.68;3.30;;;8.00;96.70;;;;;;4964651;28;20043;-75
2023/01/26 02:37:52;;;;;;;5.35;3.67;;;8.10;96.70;;;;;;4960590;28;20047;-74
2023/01/26 02:40:29;;;;;;;4.63;3.17;;;8.20;96.70;;;;;;4964326;28;20146;-75
2023/01/26 02:43:12;;;;;;;5.63;3.50;;;8.20;96.70;;;;;;4945687;28;21218;-75
2023/01/26 02:45:41;;;;;;;5.03;3.22;;;8.10;96.70;;;;;;4964635;28;20051;-75
2023/01/26 02:48:09;;;;;;;3.60;2.67;;;8.20;96.70;;;;;;4964513;28;20688;-74
2023/01/26 02:50:37;;;;;;;5.30;3.92;;;8.10;96.70;;;;;;4962282;28;20456;-75
2023/01/26 02:53:05;;;;;;;4.72;3.25;;;8.10;96.70;;;;;;4976787;28;20061;-75
2023/01/26 02:55:33;;;;;;;4.43;2.95;;;8.10;96.70;;;;;;4964609;28;20047;-73
2023/01/26 02:58:03;;;;;;;4.43;3.00;;;8.10;96.70;;;;;;4959599;28;20550;-75
2023/01/26 03:00:36;;;;;;;4.80;3.08;;;8.10;96.70;;;;;;4960463;28;20050;-75
2023/01/26 03:03:13;;;;;;;4.90;2.70;;;8.10;96.70;;;;;;4960749;28;20066;-75
2023/01/26 03:05:41;;;;;;;;;;;8.00;96.70;;;;;;4963514;28;20457;-74
2023/01/26 03:08:09;;;;;;;4.13;2.80;;;8.00;96.70;;;;;;4960654;28;19926;-75
2023/01/26 03:10:37;;;;;;;3.67;2.47;;;7.90;96.70;;;;;;4966054;28;20117;-75
2023/01/26 03:13:06;;;;;;;4.28;2.92;;;7.80;96.70;;;;;;4964520;28;20113;-75
2023/01/26 03:15:42;;;;;;;4.45;3.08;;;7.90;96.70;;;;;;4948157;28;20046;-74
2023/01/26 03:29:38;;;;;;;4.47;3.08;;;7.80;96.70;;;;;;4964619;28;20050;-75
2023/01/26 03:32:08;;;;;;;5.32;3.30;;;7.80;96.70;;;;;;4965534;28;20047;-75
2023/01/26 03:34:41;;;;;;;4.50;3.28;;;7.90;96.70;;;;;;4964656;28;20555;-75
2023/01/26 03:37:10;;;;;;;4.53;3.20;;;7.90;96.70;;;;;;4964356;28;20035;-74
2023/01/26 03:56:31;;;;;;;4.45;2.95;;;7.70;96.70;;;;;;4954153;28;20836;-75
2023/01/26 03:59:08;;;;;;;5.85;3.30;;;7.80;96.70;;;;;;4962746;28;20055;-75
2023/01/26 04:01:40;;;;;;;6.15;3.30;;;7.70;96.70;;;;;;4945499;28;21185;-75
2023/01/26 04:09:47;;;;;;;5.32;2.97;;;7.50;96.70;;;;;;4958519;28;20047;-76
2023/01/26 04:12:15;;;;;;;5.28;3.47;;;7.60;96.70;;;;;;4962537;28;20142;-76
2023/01/26 04:23:22;;;;;;;5.50;3.50;;;7.60;96.70;;;;;;4979312;28;20078;-76
2023/01/26 04:25:51;;;;;;;4.65;3.13;;;7.60;96.70;;;;;;4966927;28;20042;-76
2023/01/26 04:28:19;;;;;;;6.45;3.80;;;7.50;96.70;;;;;;4956679;28;20415;-76
2023/01/26 04:30:48;;;;;;;4.45;3.03;;;7.50;96.70;;;;;;4962084;28;20568;-77
2023/01/26 04:33:16;;;;;;;6.20;3.50;;;7.40;96.70;;;;;;4973764;28;20097;-76
2023/01/26 04:35:45;;;;;;;6.35;3.70;;;7.30;96.70;;;;;;4962473;28;20104;-76
2023/01/26 04:38:13;;;;;;;8.07;4.30;;;7.20;96.70;;;;;;4962483;28;20050;-75
2023/01/26 04:40:42;;;;;;;6.10;4.03;;;7.20;96.70;;;;;;4949453;28;20073;-74
2023/01/26 04:43:10;;;;;;;6.57;4.10;;;7.30;96.70;;;;;;4960103;28;20130;-75
2023/01/26 04:45:38;;;;;;;5.45;3.60;;;7.40;96.70;;;;;;4961326;28;20166;-75
2023/01/26 04:48:06;;;;;;;5.00;3.50;;;7.40;96.70;;;;;;4946941;28;20057;-74
2023/01/26 04:50:34;;;;;;;6.70;3.65;;;7.40;96.70;;;;;;4957862;28;20061;-75
2023/01/26 04:53:04;;;;;;;5.50;3.38;;;7.40;96.70;;;;;;4956664;28;20055;-75
2023/01/26 04:55:32;;;;;;;3.97;3.00;;;7.40;96.70;;;;;;4950316;28;20043;-75
2023/01/26 04:58:00;;;;;;;4.90;3.22;;;7.40;96.70;;;;;;4959954;28;20050;-75
2023/01/26 05:00:37;;;;;;;6.35;3.42;;;7.30;96.70;;;;;;4946844;28;20129;-75
2023/01/26 05:03:05;;;;;;;4.45;3.25;;;7.40;96.70;;;;;;4957409;28;20391;-74
2023/01/26 05:05:36;;;;;;;6.13;3.40;;;7.30;96.70;;;;;;4953622;28;20071;-75
2023/01/26 05:08:06;;;;;;;5.35;3.00;;;7.30;96.70;;;;;;4958482;28;20524;-76
2023/01/26 05:10:34;;;;;;;5.40;3.30;;;7.30;96.70;;;;;;4962516;28;20864;-75
2023/01/26 05:13:24;;;;;;;5.60;3.15;;;7.30;96.70;;;;;;4963182;28;20141;-76
2023/01/26 05:16:16;;;;;;;4.50;3.03;;;7.40;96.70;;;;;;4936667;28;20042;-75
2023/01/26 05:19:10;;;;;;;5.38;3.17;;;7.40;96.70;;;;;;4922079;29;20719;-75
2023/01/26 05:21:51;;;;;;;5.80;3.58;;;7.40;96.70;;;;;;4891573;29;20115;-74
2023/01/26 05:24:20;;;;;;;5.20;3.22;;;7.40;96.70;;;;;;4890074;29;20138;-75
2023/01/26 05:27:20;;;;;;;4.43;2.83;;;7.30;96.70;;;;;;4935584;29;20119;-76
2023/01/26 05:29:59;;;;;;;3.97;2.60;;;7.20;96.70;;;;;;4915390;29;20574;-75
2023/01/26 05:32:30;;;;;;;4.18;3.00;;;7.20;96.70;;;;;;4900209;29;20700;-74
2023/01/26 05:34:58;;;;;;;5.28;3.45;;;7.20;96.70;;;;;;4936886;29;20106;-76
2023/01/26 05:37:27;;;;;;;5.05;3.22;;;7.20;96.70;;;;;;4919138;29;20069;-77
2023/01/26 05:39:57;;;;;;;4.57;2.67;;;7.10;96.70;;;;;;4905133;29;20582;-76
2023/01/26 05:42:26;;;;;;;4.60;2.88;;;7.20;96.70;;;;;;4909630;29;20079;-73
2023/01/26 05:45:22;;;;;;;;;;;7.20;96.70;;;;;;4900451;29;20048;-73
2023/01/26 05:47:53;;;;;;;3.97;2.72;;;7.30;96.70;;;;;;4901524;29;19931;-73
2023/01/26 05:50:21;;;;;;;4.93;2.72;;;7.20;96.70;;;;;;4914669;29;20055;-72
2023/01/26 05:53:09;;;;;;;4.68;3.17;;;7.30;96.70;;;;;;4921362;29;20062;-73
2023/01/26 05:55:38;;;;;;;3.95;2.63;;;7.30;96.70;;;;;;4898235;28;20141;-73
2023/01/26 05:58:07;;;;;;;5.75;2.53;;;7.40;96.70;;;;;;4961736;28;20141;-73
2023/01/26 06:00:34;;;;;;;4.35;2.78;;;7.40;96.70;;;;;;4961607;28;20051;-73
2023/01/26 06:03:08;;;;;;;4.75;3.13;;;7.40;96.70;;;;;;4977695;28;20049;-73
2023/01/26 06:05:37;;;;;;;4.97;2.97;;;7.40;96.70;;;;;;4961813;28;20050;-73
2023/01/26 06:08:14;;;;;;;5.05;2.83;;;7.40;96.70;;;;;;4965046;28;20094;-73
2023/01/26 06:11:10;;;;;;;6.65;3.03;;;7.40;96.70;;;;;;4955614;28;20086;-73
2023/01/26 06:13:45;;;;;;;3.60;2.45;;;7.40;96.70;;;;;;4964547;28;20054;-73
2023/01/26 06:16:20;;;;;;;5.13;2.78;;;7.40;96.70;;;;;;4981760;28;20058;-73
2023/01/26 06:18:49;;;;;;;4.47;2.90;;;7.40;96.70;;;;;;4965511;28;20059;-75
2023/01/26 06:21:18;;;;;;;5.18;3.05;;;7.40;96.70;;;;;;4964741;28;20129;-73
2023/01/26 06:23:46;;;;;;;5.38;2.95;;;7.30;96.70;;;;;;4965754;28;20058;-73
2023/01/26 06:26:16;;;;;;;4.45;2.60;;;7.30;96.70;;;;;;4955825;28;20133;-74
2023/01/26 06:28:44;;;;;;;4.55;3.05;;;7.40;96.70;;;;;;4958700;28;20047;-73
2023/01/26 06:31:15;;;;;;;4.45;2.70;;;7.40;96.70;;;;;;4958720;28;20047;-73
2023/01/26 06:33:43;;;;;;;6.72;2.80;;;7.40;96.70;;;;;;4961419;28;20421;-73
2023/01/26 06:36:13;;;;;;;5.18;3.05;;;7.40;96.70;;;;;;4965002;28;20043;-73
2023/01/26 06:38:45;;;;;;;5.50;3.17;;;7.50;96.70;;;;;;4965012;28;20055;-72
2023/01/26 06:41:15;;;;;;;2.83;2.42;;;7.50;96.70;;;;;;4955875;28;20110;-73
2023/01/26 06:43:45;;;;;;;5.03;2.80;;;7.40;96.70;;;;;;4962881;28;20074;-72
2023/01/26 06:46:13;;;;;;;4.53;3.00;;;7.40;96.70;;;;;;4963660;28;20051;-73
2023/01/26 06:48:42;;;;;;;4.93;2.72;;;7.40;96.70;;;;;;4964677;28;20074;-72
2023/01/26 06:51:43;;;;;;;3.85;2.42;;;7.40;96.70;;;;;;4964538;28;20048;-73
2023/01/26 06:54:12;;;;;;;4.35;2.72;;;7.40;96.70;;;;;;4912536;28;20434;-72
2023/01/26 06:57:01;;;;;;;5.65;3.38;;;7.40;96.70;;;;;;4954789;28;20046;-73
2023/01/26 07:00:05;;;;;;;5.18;3.25;;;7.40;96.70;;;;;;4930922;29;20051;-72
2023/01/26 07:02:40;;;;;;;5.70;2.92;;;7.40;96.70;;;;;;4957559;28;20066;-73
2023/01/26 07:05:08;;;;;;;4.93;2.70;;;7.50;96.70;;;;;;4971089;28;20055;-73
2023/01/26 07:07:39;;;;;;;4.63;3.10;;;7.50;96.70;;;;;;4959536;28;20078;-73
2023/01/26 07:10:07;;;;;;;4.68;3.13;;;7.50;96.70;;;;;;4970113;28;20412;-73
2023/01/26 07:12:42;;;;;;;4.93;2.95;;;7.50;96.70;;;;;;4965644;28;20046;-73
2023/01/26 07:15:11;;;;;;;8.52;3.63;;;7.50;96.70;;;;;;4964302;28;20054;-73
2023/01/26 07:17:39;;;;;;;6.95;3.50;;;7.60;96.70;;;;;;4949244;28;20573;-72
2023/01/26 07:20:08;;;;;;;5.97;3.58;;;7.60;96.70;;;;;;4965626;28;20039;-73
2023/01/26 07:22:36;;;;;;;5.28;3.55;;;7.60;96.70;;;;;;4965349;28;20043;-73
2023/01/26 07:25:05;;;;;;;6.20;3.80;;;7.50;96.70;;;;;;4963959;28;20477;-72
2023/01/26 07:27:32;;;;;;;6.95;3.85;;;7.50;96.70;;;;;;4963630;28;20479;-73
2023/01/26 07:30:02;;;;;;;10.48;4.28;;;7.50;96.70;;;;;;4962893;28;20039;-73
2023/01/26 07:32:31;;;;;;;5.53;3.20;;;7.50;96.70;;;;;;4956967;28;20047;-73
2023/01/26 07:34:59;;;;;;;4.53;2.80;;;7.50;96.70;;;;;;4963720;28;20070;-72
2023/01/26 07:37:27;;;;;;;3.70;2.78;;;7.60;96.70;;;;;;4963897;28;20143;-73
2023/01/26 07:39:54;;;;;;;5.22;2.85;;;7.70;96.70;;;;;;4963476;28;20051;-73
2023/01/26 07:42:22;;;;;;;3.92;2.92;;;7.60;96.70;;;;;;4964782;28;20113;-72
2023/01/26 07:45:05;;;;;;;4.03;2.78;;;7.70;96.70;;;;;;4962541;28;20051;-73
2023/01/26 07:47:34;;;;;;;8.18;3.72;;;7.70;96.70;;;;;;4965765;28;20133;-73
2023/01/26 07:50:04;;;;;;;4.70;3.33;;;7.70;96.70;;;;;;4959266;28;20494;-73
2023/01/26 07:52:33;;;;;;;4.05;2.85;;;7.70;96.70;;;;;;4961725;28;20528;-73
2023/01/26 07:55:01;;;;;;;5.57;3.08;;;7.70;96.70;;;;;;4959264;28;20043;-72
2023/01/26 07:57:30;;;;;;;5.03;3.28;;;7.80;96.70;;;;;;4961487;28;20504;-73
2023/01/26 07:59:58;;;;;;;5.55;3.10;;;7.80;96.70;;;;;;4965095;28;20412;-72
2023/01/26 08:02:28;;;;;;;6.15;3.20;;;7.80;96.70;;;;;;4979675;28;20512;-73
2023/01/26 08:04:57;;;;;;;4.60;2.92;;;7.80;96.70;;;;;;4957673;28;20051;-72
2023/01/26 08:07:25;;;;;;;5.03;2.83;;;7.90;96.70;;;;;;4970312;28;20046;-73
2023/01/26 08:09:53;;;;;;;5.88;3.20;;;7.90;96.70;;;;;;4955255;28;20147;-73
2023/01/26 08:12:21;;;;;;;3.80;2.92;;;7.90;96.70;;;;;;4955406;28;21046;-72
2023/01/26 08:14:49;;;;;;;3.83;2.70;;;7.90;96.70;;;;;;4968712;28;20054;-73
2023/01/26 08:17:18;;;;;;;4.18;2.97;;;8.00;96.70;;;;;;4964912;28;20051;-73
2023/01/26 08:19:47;;;;;;;5.93;3.22;;;8.00;96.70;;;;;;4956933;28;20043;-73
2023/01/26 08:22:16;;;;;;;5.13;2.60;;;8.10;96.70;;;;;;4961764;28;20042;-74
2023/01/26 08:24:44;;;;;;;5.07;2.80;;;8.10;96.70;;;;;;4955461;28;20138;-74
2023/01/26 08:27:13;;;;;;;5.32;3.10;;;8.10;96.70;;;;;;4953138;28;20054;-73
2023/01/26 08:29:42;;;;;;;5.22;2.88;;;8.20;96.70;;;;;;4962118;28;20400;-73
2023/01/26 08:32:10;;;;;;;4.25;2.22;;;8.20;96.70;;;;;;4978054;28;20409;-72
2023/01/26 08:34:38;;;;;;;5.35;3.03;;;8.20;96.70;;;;;;4957035;28;20470;-73
2023/01/26 08:37:08;;;;;;;4.93;2.85;;;8.30;96.70;;;;;;4957562;28;20051;-73
2023/01/26 08:39:36;;;;;;;4.72;2.67;;;8.40;96.70;;;;;;4956828;28;20039;-72
2023/01/26 08:42:05;;;;;;;6.68;3.30;;;8.40;96.70;;;;;;4961670;28;20055;-73
2023/01/26 08:44:33;;;;;;;4.10;2.90;;;8.40;96.70;;;;;;4962700;28;20046;-71
2023/01/26 08:47:01;;;;;;;3.58;2.58;;;8.40;96.70;;;;;;4963163;28;20292;-72
2023/01/26 08:49:29;;;;;;;4.10;2.78;;;8.50;96.70;;;;;;4963394;28;20548;-73
2023/01/26 08:51:58;;;;;;;4.93;3.28;;;8.40;96.70;;;;;;4954301;28;20169;-73
2023/01/26 08:54:27;;;;;;;4.35;2.97;;;8.50;96.70;;;;;;4953751;28;20082;-76
2023/01/26 08:56:57;;;;;;;3.65;2.30;;;8.50;96.70;;;;;;4953649;28;20046;-77
2023/01/26 08:59:25;;;;;;;7.10;3.20;;;8.50;96.70;;;;;;4952562;28;20046;-77
2023/01/26 09:01:54;;;;;;;4.95;3.15;;;8.60;96.70;;;;;;4958881;28;20469;-76
2023/01/26 09:04:22;;;;;;;4.22;2.75;;;8.70;96.70;;;;;;4956418;28;20047;-76
2023/01/26 09:06:51;;;;;;;5.88;2.80;;;8.70;96.70;;;;;;4961945;28;20046;-77
2023/01/26 09:09:19;;;;;;;3.83;2.95;;;8.80;96.70;;;;;;4950841;28;20058;-76
2023/01/26 09:11:49;;;;;;;4.45;2.83;;;8.90;96.70;;;;;;4954828;28;20054;-78
2023/01/26 09:14:18;;;;;;;4.78;2.58;;;8.90;96.70;;;;;;4950383;28;20055;-81
2023/01/26 09:16:46;;;;;;;3.50;2.50;;;9.00;96.70;;;;;;4962508;28;20607;-80
2023/01/26 09:19:14;;;;;;;4.40;2.63;;;9.10;96.70;;;;;;4954964;28;20114;-77
2023/01/26 09:21:42;;;;;;;3.90;2.67;;;9.20;96.70;;;;;;4962515;28;20493;-76
2023/01/26 09:24:11;;;;;;;6.22;3.20;;;9.30;96.70;;;;;;4962258;28;20054;-75
2023/01/26 09:26:39;;;;;;;3.75;2.42;;;9.40;96.70;;;;;;4964197;28;20038;-78
2023/01/26 09:29:09;;;;;;;3.58;2.50;;;9.40;96.70;;;;;;4955822;28;20134;-75
2023/01/26 09:31:38;;;;;;;5.30;3.28;;;9.60;96.70;;;;;;4955687;28;20097;-75
2023/01/26 09:34:06;;;;;;;5.90;2.60;;;9.60;96.70;;;;;;4946507;28;20043;-79
2023/01/26 09:36:34;;;;;;;3.60;2.42;;;9.70;96.70;;;;;;4962367;28;20054;-77
2023/01/26 09:39:03;;;;;;;5.28;2.72;;;9.80;96.70;;;;;;4963956;28;20054;-75
2023/01/26 09:41:50;;;;;;;3.20;2.30;;;9.70;96.70;;;;;;4962071;28;20133;-77
2023/01/26 09:44:24;;;;;;;4.72;2.78;;;9.70;96.70;;;;;;4959673;28;20593;-78
2023/01/26 09:47:03;;;;;;;3.80;2.30;;;9.90;96.70;;;;;;4959430;28;20050;-79
2023/01/26 09:49:44;;;;;;;3.65;2.42;;;9.90;96.70;;;;;;4970062;28;20050;-76
2023/01/26 09:52:22;;;;;;;3.55;2.60;;;10.00;96.70;;;;;;4943713;28;20055;-78
2023/01/26 09:54:53;;;;;;;4.03;2.70;;;10.00;96.70;;;;;;4955828;28;20051;-76
2023/01/26 09:57:27;;;;;;;4.25;2.60;;;10.00;96.70;;;;;;4960977;28;20050;-76
2023/01/26 10:00:01;;;;;;;3.80;2.80;;;10.10;96.70;;;;;;4974875;28;20142;-76
2023/01/26 10:02:49;;;;;;;4.22;2.60;;;10.20;96.70;;;;;;4961015;28;20126;-77
2023/01/26 10:05:24;;;;;;;4.32;2.83;;;10.20;96.70;;;;;;4959999;28;20050;-76
2023/01/26 10:07:52;;;;;;;4.50;2.88;;;10.20;96.70;;;;;;4961037;28;20058;-79
2023/01/26 10:10:28;;;;;;;4.22;2.88;;;10.20;96.70;;;;;;4962101;28;20054;-73
2023/01/26 10:12:57;;;;;;;4.32;2.70;;;10.30;96.70;;;;;;4956603;28;20054;-72
2023/01/26 10:15:32;;;;;;;5.30;3.28;;;10.40;96.70;;;;;;4953042;28;20046;-72
2023/01/26 10:18:05;;;;;;;4.20;2.80;;;10.40;96.70;;;;;;4977265;28;20075;-72
2023/01/26 10:20:36;;;;;;;5.45;3.08;;;10.40;96.70;;;;;;4951784;28;20047;-72
2023/01/26 10:23:10;;;;;;;5.50;3.40;;;10.40;96.70;;;;;;4950760;28;20043;-73
2023/01/26 10:25:39;;;;;;;4.10;2.97;;;10.50;96.70;;;;;;4960042;28;20568;-73
2023/01/26 10:28:13;;;;;;;4.53;2.90;;;10.50;96.70;;;;;;4962912;28;20054;-73
2023/01/26 10:30:45;;;;;;;4.90;2.63;;;10.50;96.70;;;;;;4941958;28;20552;-72
2023/01/26 10:33:17;;;;;;;5.95;3.72;;;10.60;96.70;;;;;;4951246;28;20135;-71
2023/01/26 10:35:46;;;;;;;4.60;3.08;;;10.70;96.70;;;;;;4946905;28;20074;-73
2023/01/26 10:38:38;;;;;;;5.05;3.38;;;10.80;96.70;;;;;;4957566;28;20077;-72
2023/01/26 10:41:19;;;;;;;6.07;3.28;;;10.70;96.70;;;;;;4953926;28;20605;-73
2023/01/26 10:43:52;;;;;;;6.43;4.03;;;10.80;96.70;;;;;;4962027;28;20070;-73
2023/01/26 10:46:28;;;;;;;6.82;4.25;;;10.90;96.70;;;;;;4951754;28;20047;-73
2023/01/26 10:48:59;;;;;;;9.63;6.28;;;10.90;96.70;;;;;;4960346;28;20058;-73
2023/01/26 10:51:29;;;;;;;8.10;5.00;;;11.00;96.70;;;;;;4961580;28;20385;-73
2023/01/26 10:54:20;;;;;;;8.15;4.28;;;11.10;96.70;;;;;;4961593;28;20134;-73
2023/01/26 10:56:51;;;;;;;6.85;4.85;;;11.20;96.70;;;;;;4971354;28;20386;-73
2023/01/26 10:59:32;;;;;;;9.77;5.43;;;11.20;96.70;;;;;;4964113;28;20607;-73
2023/01/26 11:02:20;;;;;;;9.45;4.72;;;11.30;96.70;;;;;;4963997;28;20035;-73
2023/01/26 11:05:17;;;;;;;6.95;4.10;;;11.20;96.70;;;;;;4964835;28;20073;-73
2023/01/26 11:07:47;;;;;;;6.85;4.57;;;11.30;96.70;;;;;;4965795;28;20685;-72
2023/01/26 11:10:27;;;;;;;8.00;4.57;;;11.30;96.70;;;;;;4963590;28;20050;-73
2023/01/26 11:13:16;;;;;;;6.57;3.72;;;11.50;96.70;;;;;;4965489;28;20059;-75
2023/01/26 11:15:47;;;;;;;8.48;5.28;;;11.40;96.70;;;;;;4978718;28;20053;-73
2023/01/26 11:18:34;;;;;;;6.53;4.50;;;11.40;96.70;;;;;;4960654;28;20054;-73
2023/01/26 11:21:08;;;;;;;9.77;5.18;;;11.60;96.70;;;;;;4951673;28;20070;-72
2023/01/26 11:23:49;;;;;;;8.57;5.68;;;11.50;96.70;;;;;;4962734;28;20059;-73
2023/01/26 11:26:52;;;;;;;7.85;5.47;;;11.60;96.70;;;;;;4971168;28;20106;-73
2023/01/26 11:29:49;;;;;;;7.05;4.43;;;11.70;96.70;;;;;;4970393;28;20516;-76
2023/01/26 11:32:23;;;;;;;8.50;5.03;;;11.60;96.70;;;;;;4958316;28;20516;-77
2023/01/26 11:35:05;;;;;;;6.60;4.70;;;11.50;96.70;;;;;;4965044;28;20050;-75
2023/01/26 11:37:41;;;;;;;9.48;5.45;;;11.30;96.70;;;;;;4977592;28;20053;-75
2023/01/26 11:40:36;;;;;;;10.43;5.25;;;11.30;96.70;;;;;;4965093;28;20046;-76
2023/01/26 11:43:46;;;;;;;9.00;5.13;;;11.30;96.70;;;;;;4954045;28;20054;-76
2023/01/26 11:46:26;;;;;;;8.07;4.82;;;11.30;96.70;;;;;;4953736;28;20047;-77
2023/01/26 11:49:12;;;;;;;7.03;4.13;;;11.50;96.70;;;;;;4960898;28;20053;-76
2023/01/26 11:51:59;;;;;;;8.18;4.07;;;11.60;96.70;;;;;;4956331;28;21458;-75
2023/01/26 11:54:40;;;;;;;6.50;3.72;;;11.60;96.70;;;;;;4963603;28;20039;-78
2023/01/26 11:57:18;;;;;;;6.55;3.67;;;11.70;96.70;;;;;;4954209;28;20063;-74
2023/01/26 11:59:52;;;;;;;10.23;4.28;;;11.50;96.70;;;;;;4959017;28;20054;-72
2023/01/26 12:02:27;;;;;;;4.47;3.60;;;11.40;96.70;;;;;;4964586;28;20051;-78
2023/01/26 12:05:02;;;;;;;4.80;3.47;;;11.20;96.70;;;;;;4962056;28;20053;-73
2023/01/26 12:07:50;;;;;;;5.88;3.70;;;11.30;96.70;;;;;;4947678;28;20321;-74
2023/01/26 12:10:23;;;;;;;5.57;3.30;;;11.20;96.70;;;;;;4949342;28;20609;-75
2023/01/26 12:12:57;;;;;;;5.95;3.90;;;11.10;96.70;;;;;;4965693;28;20046;-73
2023/01/26 12:15:31;;;;;;;6.68;3.85;;;11.40;96.70;;;;;;4955529;28;20524;-74
2023/01/26 12:18:04;;;;;;;6.22;3.85;;;11.70;96.70;;;;;;4962944;28;20114;-73
2023/01/26 12:20:38;;;;;;;6.10;3.83;;;11.90;96.70;;;;;;4964047;28;20047;-74
2023/01/26 12:23:15;;;;;;;3.80;2.63;;;11.90;96.70;;;;;;4961348;28;20400;-73
2023/01/26 12:25:48;;;;;;;4.85;3.63;;;12.10;96.70;;;;;;4956083;28;20073;-72
2023/01/26 12:28:21;;;;;;;5.45;3.40;;;12.20;96.70;;;;;;4959759;28;20137;-74
2023/01/26 12:30:56;;;;;;;7.13;3.67;;;12.20;96.70;;;;;;4962095;28;20100;-76
2023/01/26 12:33:25;;;;;;;5.13;3.63;;;12.30;96.70;;;;;;4961357;28;20128;-78
2023/01/26 12:36:25;;;;;;;4.63;3.50;;;12.30;96.70;;;;;;4961107;28;20089;-80
2023/01/26 12:39:06;;;;;;;5.55;3.60;;;12.40;96.70;;;;;;4959443;28;20055;-78
2023/01/26 12:42:04;;;;;;;5.00;3.90;;;12.50;96.70;;;;;;4958115;28;20043;-78
2023/01/26 12:44:35;;;;;;;;;;;12.40;96.70;;;;;;4958090;28;20078;-76
2023/01/26 12:47:11;;;;;;;4.72;3.70;;;12.40;96.70;;;;;;4960498;28;19926;-78
2023/01/26 12:49:45;;;;;;;5.07;3.97;;;12.50;96.70;;;;;;4961043;28;20065;-78
2023/01/26 12:52:21;;;;;;;6.03;3.72;;;12.60;96.70;;;;;;4958449;28;20600;-78
2023/01/26 12:54:58;;;;;;;4.85;3.47;;;12.70;96.70;;;;;;4960997;28;20046;-78
2023/01/26 12:57:33;;;;;;;6.03;3.50;;;12.80;96.70;;;;;;4959125;28;20047;-76
2023/01/26 13:00:05;;;;;;;5.95;3.80;;;12.80;96.70;;;;;;4956909;28;20418;-76
2023/01/26 13:02:34;;;;;;;5.68;4.22;;;12.90;96.70;;;;;;4954109;28;20127;-75
2023/01/26 13:05:04;;;;;;;7.97;4.90;;;12.80;96.70;;;;;;4963200;28;20047;-75
2023/01/26 13:07:35;;;;;;;5.75;3.97;;;12.70;96.70;;;;;;4954560;28;20075;-76
2023/01/26 13:10:26;;;;;;;8.32;4.35;;;12.70;96.70;;;;;;4961536;28;20184;-76
2023/01/26 13:12:57;;;;;;;5.60;3.40;;;12.70;96.70;;;;;;4959164;28;20051;-76
2023/01/26 13:15:27;;;;;;;5.35;3.88;;;12.60;96.70;;;;;;4962635;28;20053;-76
2023/01/26 13:17:59;;;;;;;7.13;3.70;;;12.50;96.70;;;;;;4962476;28;20076;-77
2023/01/26 13:20:49;;;;;;;5.20;3.80;;;12.40;96.70;;;;;;4971259;28;20057;-77
2023/01/26 13:23:49;;;;;;;5.45;3.85;;;12.50;96.70;;;;;;4962581;28;20064;-75
2023/01/26 13:26:40;;;;;;;5.90;3.42;;;12.40;96.70;;;;;;4960776;28;20055;-76
2023/01/26 13:29:31;;;;;;;6.63;3.67;;;12.20;96.70;;;;;;4961235;28;20047;-76
2023/01/26 13:32:01;;;;;;;6.75;4.20;;;12.30;96.70;;;;;;4958637;28;20054;-77
2023/01/26 13:34:35;;;;;;;7.35;3.90;;;12.30;96.70;;;;;;4953611;28;20071;-76
2023/01/26 13:37:10;;;;;;;7.65;3.60;;;12.30;96.70;;;;;;4961867;28;20055;-77
2023/01/26 13:39:41;;;;;;;5.57;3.30;;;12.40;96.70;;;;;;4958768;28;20548;-77
2023/01/26 13:42:21;;;;;;;4.20;3.10;;;12.40;96.70;;;;;;4951681;28;20053;-75
2023/01/26 13:44:55;;;;;;;4.70;3.63;;;12.40;96.70;;;;;;4963361;28;21131;-77
2023/01/26 13:47:31;;;;;;;5.80;3.67;;;12.40;96.70;;;;;;4952771;28;20498;-77
2023/01/26 13:50:00;;;;;;;4.75;3.58;;;12.20;96.70;;;;;;4957843;28;20042;-77
2023/01/26 13:52:28;;;;;;;4.72;3.42;;;12.20;96.70;;;;;;4968279;28;20055;-78
2023/01/26 13:54:56;;;;;;;4.50;3.00;;;12.20;96.70;;;;;;4961644;28;20082;-76
2023/01/26 13:57:30;;;;;;;5.63;4.10;;;12.00;96.70;;;;;;4962735;28;20051;-77
2023/01/26 13:59:59;;;;;;;5.03;2.97;;;12.10;96.70;;;;;;4959624;28;20034;-78
2023/01/26 14:02:34;;;;;;;5.03;3.78;;;11.80;96.70;;;;;;4957354;28;20055;-77
2023/01/26 14:05:03;;;;;;;4.70;3.55;;;11.70;96.70;;;;;;4953996;28;20453;-75
2023/01/26 14:07:36;;;;;;;6.32;3.83;;;11.80;96.70;;;;;;4954547;28;20117;-78
2023/01/26 14:10:06;;;;;;;4.40;2.90;;;11.80;96.70;;;;;;4973699;28;20063;-76
2023/01/26 14:12:42;;;;;;;5.07;3.42;;;11.60;96.70;;;;;;4955833;28;20548;-76